Time;durP1;ratioP1;P1;durP2;ratioP2;P2;SDS_P1;SDS_P2;PMS_P1;PMS_P2;Temp;Humidity;BMP_temperature;BMP_pressure;BME280_temperature;BME280_humidity;BME280_pressure;Samples;Min_cycle;Max_cycle;Signal;HPM_P1;HPM_P2
2023/09/03 00:00:40;;;;;;;10.88;9.63;;;;;;;21.98;100.00;101210.22;5156953;27;20453;-75
2023/09/03 00:03:06;;;;;;;15.18;10.43;;;;;;;21.92;100.00;101163.94;5154068;27;20031;-76
2023/09/03 00:05:34;;;;;;;11.25;9.73;;;;;;;21.86;100.00;101153.91;5137929;27;20530;-76
2023/09/03 00:08:00;;;;;;;10.30;9.05;;;;;;;21.74;100.00;101095.84;5138346;27;20431;-76
2023/09/03 00:10:25;;;;;;;15.57;9.77;;;;;;;21.79;100.00;101080.84;5159876;27;20063;-74
2023/09/03 00:12:51;;;;;;;9.93;8.93;;;;;;;22.37;100.00;101104.28;5172724;27;20026;-78
2023/09/03 00:15:23;;;;;;;11.50;8.77;;;;;;;22.14;100.00;101097.88;5159058;27;20023;-77
2023/09/03 00:17:49;;;;;;;9.85;8.50;;;;;;;22.09;100.00;101040.28;5138001;27;20045;-77
2023/09/03 00:20:16;;;;;;;9.55;8.45;;;;;;;21.71;100.00;101044.22;5156587;27;20109;-77
2023/09/03 00:22:41;;;;;;;14.20;8.07;;;;;;;22.33;100.00;101101.06;5137401;27;20405;-77
2023/09/03 00:25:07;;;;;;;11.15;8.10;;;;;;;22.22;100.00;101094.81;5138036;27;20023;-78
2023/09/03 00:27:33;;;;;;;10.93;7.60;;;;;;;22.27;100.00;101104.00;5156696;27;20030;-79
2023/09/03 00:29:58;;;;;;;9.73;7.88;;;;;;;22.21;100.00;101113.88;5156387;27;20105;-77
2023/09/03 00:32:24;;;;;;;9.95;7.75;;;;;;;22.33;100.00;101116.59;5156284;27;20037;-74
2023/09/03 00:34:49;;;;;;;8.75;7.53;;;;;;;22.29;100.00;101109.09;5155220;27;20031;-77
2023/09/03 00:37:14;;;;;;;9.98;7.50;;;;;;;22.54;100.00;101106.72;5137637;27;20031;-76
2023/09/03 00:39:40;;;;;;;11.00;7.03;;;;;;;22.55;100.00;101107.56;5137777;27;20034;-76
2023/09/03 00:42:05;;;;;;;8.60;7.78;;;;;;;22.38;100.00;101124.13;5136750;27;20031;-77
2023/09/03 00:44:31;;;;;;;9.98;7.88;;;;;;;22.34;100.00;101113.06;5136992;27;20030;-78
2023/09/03 00:46:56;;;;;;;9.85;7.50;;;;;;;21.95;100.00;101062.72;5155456;27;20480;-77
2023/09/03 00:49:23;;;;;;;12.27;8.30;;;;;;;22.35;100.00;101129.47;5155633;27;20026;-77
2023/09/03 00:51:52;;;;;;;8.63;7.68;;;;;;;22.21;100.00;101119.91;5137355;27;20027;-78
2023/09/03 00:54:21;;;;;;;8.07;7.28;;;;;;;22.54;100.00;101131.81;5155220;27;20029;-76
2023/09/03 00:56:49;;;;;;;8.75;7.88;;;;;;;22.28;100.00;101128.16;5137298;27;20054;-76
2023/09/03 00:59:15;;;;;;;9.35;7.30;;;;;;;22.54;100.00;101139.59;5155225;27;20481;-76
2023/09/03 01:01:42;;;;;;;10.52;7.78;;;;;;;22.41;100.00;101131.69;5136593;27;20031;-78
2023/09/03 01:04:07;;;;;;;9.15;8.23;;;;;;;21.58;100.00;101040.66;5137089;27;20034;-77
2023/09/03 01:06:33;;;;;;;8.98;7.53;;;;;;;22.07;100.00;101130.22;5155251;27;20023;-75
2023/09/03 01:08:58;;;;;;;9.10;8.05;;;;;;;21.91;100.00;101075.03;5154908;27;20485;-75
2023/09/03 01:11:37;;;;;;;9.55;8.25;;;;;;;21.89;100.00;101087.22;5137112;27;20062;-76
2023/09/03 01:14:25;;;;;;;9.55;7.97;;;;;;;22.11;100.00;101142.06;5118550;27;20042;-77
2023/09/03 01:17:02;;;;;;;9.10;7.80;;;;;;;21.96;100.00;101098.91;5104910;27;20038;-77
2023/09/03 01:19:52;;;;;;;9.77;8.18;;;;;;;21.94;100.00;101147.38;5115936;27;20023;-75
2023/09/03 01:22:37;;;;;;;9.73;7.85;;;;;;;21.91;100.00;101142.38;5134533;27;20382;-78
2023/09/03 01:25:50;;;;;;;8.98;7.60;;;;;;;21.62;100.00;101101.69;5115733;27;20533;-77
2023/09/03 01:28:26;;;;;;;11.07;7.90;;;;;;;21.61;100.00;101167.31;5099647;27;20039;-77
2023/09/03 01:31:04;;;;;;;9.13;7.28;;;;;;;21.90;100.00;101184.75;5116258;27;20057;-76
2023/09/03 01:33:31;;;;;;;10.05;7.70;;;;;;;21.71;100.00;101172.84;5111509;27;20023;-74
2023/09/03 01:35:59;;;;;;;9.25;7.03;;;;;;;21.68;100.00;101168.69;5135098;27;20035;-74
2023/09/03 01:38:25;;;;;;;9.77;7.50;;;;;;;21.54;100.00;101172.03;5134292;27;20031;-77
2023/09/03 01:40:53;;;;;;;9.93;7.55;;;;;;;21.12;100.00;101088.09;5116253;27;20037;-79
2023/09/03 01:43:19;;;;;;;9.82;7.82;;;;;;;21.12;100.00;101145.00;5115720;27;20496;-79
2023/09/03 01:45:58;;;;;;;8.55;7.35;;;;;;;21.36;100.00;101167.81;5133840;27;20092;-76
2023/09/03 01:48:40;;;;;;;10.60;7.38;;;;;;;21.59;100.00;101239.91;5133642;27;20092;-77
2023/09/03 01:51:31;;;;;;;9.35;7.80;;;;;;;21.77;100.00;101240.66;5133986;27;20023;-78
2023/09/03 01:54:03;;;;;;;7.85;7.15;;;;;;;21.72;100.00;101211.59;5134157;27;20132;-78
2023/09/03 01:56:33;;;;;;;9.70;7.47;;;;;;;21.07;100.00;101170.28;5133692;27;20024;-78
2023/09/03 01:59:09;;;;;;;8.45;7.40;;;;;;;21.06;100.00;101137.56;5133228;27;20083;-75
2023/09/03 02:01:35;;;;;;;10.98;8.32;;;;;;;21.49;100.00;101230.13;5133716;27;20027;-76
2023/09/03 02:04:00;;;;;;;10.55;8.25;;;;;;;20.90;100.00;101180.63;5133748;27;20034;-75
2023/09/03 02:06:27;;;;;;;12.68;8.73;;;;;;;21.16;100.00;101237.88;5115449;27;20039;-75
2023/09/03 02:08:52;;;;;;;10.63;9.43;;;;;;;20.80;100.00;101228.56;5115358;27;20031;-76
2023/09/03 02:11:18;;;;;;;11.45;9.40;;;;;;;20.32;100.00;101173.19;5133501;27;20027;-75
2023/09/03 02:13:43;;;;;;;13.93;9.77;;;;;;;20.56;100.00;101222.84;5133075;27;20027;-77
2023/09/03 02:16:08;;;;;;;12.30;10.07;;;;;;;20.69;100.00;101254.94;5115512;27;20110;-80
2023/09/03 02:18:34;;;;;;;12.25;9.32;;;;;;;21.03;100.00;101262.72;5133575;27;20500;-78
2023/09/03 02:20:59;;;;;;;12.48;9.25;;;;;;;20.77;100.00;101250.22;5133117;27;20046;-78
2023/09/03 02:23:25;;;;;;;15.18;10.10;;;;;;;20.46;100.00;101229.38;5114486;27;20118;-78
2023/09/03 02:26:03;;;;;;;12.05;10.73;;;;;;;20.21;100.00;101214.22;5133105;27;20033;-78
2023/09/03 02:28:29;;;;;;;14.18;10.23;;;;;;;20.38;100.00;101224.56;5115108;27;20057;-75
2023/09/03 02:30:55;;;;;;;12.90;10.57;;;;;;;20.52;100.00;101283.34;5109787;27;20043;-75
2023/09/03 02:33:22;;;;;;;13.43;10.90;;;;;;;20.29;100.00;101227.59;5112843;28;20031;-75
2023/09/03 02:35:47;;;;;;;14.95;11.45;;;;;;;20.36;100.00;101272.06;5112496;28;20030;-77
2023/09/03 02:38:13;;;;;;;13.30;10.77;;;;;;;20.58;100.00;101281.28;5112406;28;20035;-78
2023/09/03 02:40:38;;;;;;;14.50;11.77;;;;;;;20.22;100.00;101230.56;5112360;28;20031;-77
2023/09/03 02:43:04;;;;;;;15.38;11.43;;;;;;;19.90;100.00;101221.69;5100746;28;20038;-74
2023/09/03 02:45:30;;;;;;;13.18;11.45;;;;;;;20.28;100.00;101280.16;5112129;28;20468;-77
2023/09/03 02:47:56;;;;;;;14.18;11.40;;;;;;;20.38;100.00;101271.06;5095608;28;20063;-76
2023/09/03 02:50:21;;;;;;;15.60;11.18;;;;;;;20.75;100.00;101280.47;5111936;28;20077;-76
2023/09/03 02:52:48;;;;;;;13.25;10.65;;;;;;;20.52;100.00;101263.50;5111958;28;20032;-75
2023/09/03 02:55:13;;;;;;;13.35;10.85;;;;;;;20.36;100.00;101221.22;5112215;28;20035;-76
2023/09/03 02:57:39;;;;;;;11.65;9.98;;;;;;;20.41;100.00;101221.00;5083257;28;20052;-77
2023/09/03 03:00:05;;;;;;;13.50;10.05;;;;;;;20.51;100.00;101230.81;5073704;28;20482;-74
2023/09/03 03:02:31;;;;;;;11.15;10.07;;;;;;;20.74;100.00;101286.53;5091914;28;20118;-78
2023/09/03 03:04:57;;;;;;;12.55;10.00;;;;;;;20.38;100.00;101228.91;5073973;28;20170;-79
2023/09/03 03:07:22;;;;;;;15.40;10.98;;;;;;;20.04;100.00;101221.91;5091939;28;20508;-75
2023/09/03 03:09:51;;;;;;;13.30;11.27;;;;;;;20.40;100.00;101277.00;5091947;28;20089;-74
2023/09/03 03:12:16;;;;;;;12.65;10.98;;;;;;;20.36;100.00;101279.81;5109438;27;20042;-76
2023/09/03 03:14:42;;;;;;;15.27;10.18;;;;;;;20.38;100.00;101276.22;5118439;27;20027;-77
2023/09/03 03:17:07;;;;;;;11.63;10.05;;;;;;;19.95;100.00;101177.59;5079476;28;20035;-77
2023/09/03 03:19:33;;;;;;;12.65;8.30;;;;;;;20.26;100.00;101226.91;5095644;28;20110;-73
2023/09/03 03:21:58;;;;;;;11.50;7.95;;;;;;;20.84;100.00;101292.94;5086523;28;20031;-78
2023/09/03 03:24:23;;;;;;;9.57;7.78;;;;;;;20.88;100.00;101285.91;5103297;28;20048;-77
2023/09/03 03:26:49;;;;;;;8.15;7.25;;;;;;;20.86;100.00;101296.28;5118955;28;20674;-77
2023/09/03 03:29:14;;;;;;;9.32;6.80;;;;;;;20.84;100.00;101299.88;5100891;28;20029;-78
2023/09/03 03:31:42;;;;;;;9.63;7.22;;;;;;;20.31;100.00;101220.59;5096901;28;20092;-79
2023/09/03 03:34:07;;;;;;;13.07;7.45;;;;;;;20.77;100.00;101296.75;5116317;28;20031;-80
2023/09/03 03:36:33;;;;;;;7.90;6.97;;;;;;;20.94;100.00;101298.50;5101097;28;20028;-74
2023/09/03 03:38:58;;;;;;;10.43;7.10;;;;;;;20.81;100.00;101285.34;5111441;28;20428;-79
2023/09/03 03:41:24;;;;;;;12.20;7.30;;;;;;;20.89;100.00;101292.72;5115074;28;20650;-79
2023/09/03 03:43:50;;;;;;;10.60;7.47;;;;;;;20.98;100.00;101303.44;5097137;28;20508;-73
2023/09/03 03:46:17;;;;;;;8.52;7.25;;;;;;;20.85;100.00;101283.44;5096118;27;20111;-77
2023/09/03 03:48:44;;;;;;;10.38;6.93;;;;;;;20.69;100.00;101276.47;5105219;27;20082;-77
2023/09/03 03:51:09;;;;;;;8.55;7.20;;;;;;;20.54;100.00;101227.25;5105166;27;20032;-78
2023/09/03 03:53:35;;;;;;;8.10;7.30;;;;;;;20.40;100.00;101233.06;5124373;27;20100;-74
2023/09/03 03:56:08;;;;;;;9.88;6.70;;;;;;;22.50;100.00;101267.75;5124040;27;20031;-75
2023/09/03 03:58:35;;;;;;;11.05;6.60;;;;;;;22.79;100.00;101305.84;5114460;27;20059;-75
2023/09/03 04:01:30;;;;;;;8.32;6.95;;;;;;;21.47;100.00;101247.50;5144642;27;20030;-80
2023/09/03 04:03:55;;;;;;;9.15;7.35;;;;;;;20.61;100.00;101175.19;5145232;27;20054;-76
2023/09/03 04:06:21;;;;;;;8.13;7.32;;;;;;;20.23;100.00;101127.16;5144134;27;20442;-75
2023/09/03 04:08:47;;;;;;;11.38;7.47;;;;;;;20.92;100.00;101186.56;5144596;27;20039;-76
2023/09/03 04:11:20;;;;;;;8.80;6.70;;;;;;;21.10;100.00;101229.59;5126642;27;20027;-75
2023/09/03 04:13:45;;;;;;;8.13;7.22;;;;;;;20.54;100.00;101116.94;5123031;27;20034;-80
2023/09/03 04:16:16;;;;;;;8.02;7.13;;;;;;;20.74;100.00;101152.13;5143781;27;20416;-76
2023/09/03 04:18:42;;;;;;;8.50;7.25;;;;;;;21.15;100.00;101207.78;5144783;27;20027;-75
2023/09/03 04:21:07;;;;;;;9.00;7.18;;;;;;;20.87;100.00;101168.69;5144024;27;20035;-81
2023/09/03 04:23:33;;;;;;;9.15;7.18;;;;;;;21.04;100.00;101212.66;5122509;27;20033;-75
2023/09/03 04:25:58;;;;;;;11.50;7.30;;;;;;;20.86;100.00;101215.31;5144513;27;20038;-76
2023/09/03 04:28:25;;;;;;;8.65;7.05;;;;;;;21.10;100.00;101229.59;5124987;27;20437;-80
2023/09/03 04:30:57;;;;;;;9.25;7.07;;;;;;;20.91;100.00;101213.31;5108677;27;20024;-79
2023/09/03 04:33:23;;;;;;;9.50;7.18;;;;;;;21.00;100.00;101169.72;5124712;27;20031;-77
2023/09/03 04:35:55;;;;;;;8.35;7.30;;;;;;;20.94;100.00;101169.19;5142592;27;20069;-76
2023/09/03 04:38:20;;;;;;;8.63;6.57;;;;;;;23.57;100.00;101251.84;5122812;27;20027;-73
2023/09/03 04:40:46;;;;;;;9.50;6.90;;;;;;;22.49;100.00;101215.06;5140262;27;20125;-72
2023/09/03 04:43:11;;;;;;;13.60;6.47;;;;;;;22.76;100.00;101150.41;5121957;27;20118;-71
2023/09/03 04:45:37;;;;;;;11.30;6.88;;;;;;;22.30;100.00;101172.97;5114985;27;20484;-73
2023/09/03 04:48:03;;;;;;;8.98;6.68;;;;;;;22.19;100.00;101178.75;5114914;27;20462;-76
2023/09/03 04:50:28;;;;;;;8.15;6.07;;;;;;;21.45;100.00;101107.78;5114128;27;20050;-78
2023/09/03 04:52:57;;;;;;;9.70;6.45;;;;;;;21.96;100.00;101161.09;5116570;27;20031;-78
2023/09/03 04:55:23;;;;;;;7.45;6.55;;;;;;;21.79;100.00;101111.13;5115259;27;20496;-78
2023/09/03 04:57:48;;;;;;;9.55;6.45;;;;;;;21.91;100.00;101137.19;5133573;27;20146;-77
2023/09/03 05:00:13;;;;;;;8.40;6.45;;;;;;;22.17;100.00;101123.59;5132739;27;20035;-74
2023/09/03 05:02:39;;;;;;;7.85;6.22;;;;;;;22.08;100.00;101095.63;5133768;27;20039;-76
2023/09/03 05:05:05;;;;;;;8.45;6.78;;;;;;;22.07;100.00;101068.03;5134036;27;20023;-76
2023/09/03 05:07:31;;;;;;;9.25;6.18;;;;;;;22.23;100.00;101096.47;5115380;27;20031;-76
2023/09/03 05:09:57;;;;;;;8.18;6.45;;;;;;;22.69;100.00;101098.06;5133414;27;20031;-75
2023/09/03 05:12:22;;;;;;;7.35;6.25;;;;;;;22.83;100.00;101084.25;5133820;27;20031;-80
2023/09/03 05:14:48;;;;;;;6.80;6.00;;;;;;;22.95;100.00;101034.22;5115604;27;20035;-80
2023/09/03 05:17:14;;;;;;;8.85;6.60;;;;;;;22.74;100.00;100991.47;5133946;27;20067;-79
2023/09/03 05:19:39;;;;;;;8.35;6.05;;;;;;;23.31;100.00;101039.75;5115883;27;20059;-78
2023/09/03 05:22:05;;;;;;;7.22;5.80;;;;;;;23.83;100.00;101076.13;5133894;27;20049;-76
2023/09/03 05:24:31;;;;;;;6.35;5.75;;;;;;;24.00;100.00;101058.53;5133960;27;20123;-77
2023/09/03 05:26:56;;;;;;;7.30;6.13;;;;;;;24.20;100.00;101048.59;5133963;27;20035;-80
2023/09/03 05:29:22;;;;;;;9.35;6.55;;;;;;;24.26;100.00;100983.19;5115756;27;20061;-77
2023/09/03 05:31:47;;;;;;;7.93;5.70;;;;;;;24.26;100.00;101077.63;5133659;27;20429;-78
2023/09/03 05:34:12;;;;;;;6.45;5.85;;;;;;;24.51;100.00;101035.16;5132913;27;20114;-80
2023/09/03 05:36:39;;;;;;;8.15;5.93;;;;;;;24.91;100.00;101273.56;5134624;27;20019;-79
2023/09/03 05:39:04;;;;;;;8.00;5.53;;;;;;;24.81;100.00;101475.50;5115826;27;20103;-81
2023/09/03 05:41:31;;;;;;;6.88;5.45;;;;;;;25.10;100.00;101836.41;5117076;27;20471;-81
2023/09/03 05:43:57;;;;;;;6.00;5.38;;;;;;;25.40;100.00;102126.44;5117219;27;20034;-81
2023/09/03 05:46:23;;;;;;;6.95;5.50;;;;;;;25.70;100.00;103304.94;5115813;27;20031;-81
2023/09/03 05:48:52;;;;;;;7.85;5.38;;;;;;;25.75;100.00;103481.19;5133629;27;20046;-81
2023/09/03 05:51:18;;;;;;;8.48;5.07;;;;;;;25.54;100.00;103698.34;5133993;27;20039;-80
2023/09/03 05:53:44;;;;;;;5.18;4.68;;;;;;;26.10;100.00;103847.06;5115648;27;20104;-80
2023/09/03 05:56:10;;;;;;;5.40;4.80;;;;;;;26.42;100.00;103991.34;5113253;27;20027;-79
2023/09/03 05:58:37;;;;;;;5.93;5.00;;;;;;;26.30;100.00;104105.75;5134254;27;20424;-77
2023/09/03 06:01:04;;;;;;;6.03;5.20;;;;;;;26.09;100.00;104166.34;5133144;27;20500;-76
2023/09/03 06:03:29;;;;;;;5.57;4.68;;;;;;;26.61;100.00;104313.81;5115491;27;20027;-77
2023/09/03 06:05:55;;;;;;;7.90;4.55;;;;;;;26.95;100.00;104515.06;5114829;27;20031;-77
2023/09/03 06:08:20;;;;;;;6.85;4.32;;;;;;;26.95;100.00;104352.16;5115199;27;20079;-77
2023/09/03 06:10:46;;;;;;;5.80;4.60;;;;;;;26.85;100.00;104239.19;5133333;27;20119;-75
2023/09/03 06:13:11;;;;;;;5.05;4.10;;;;;;;27.19;100.00;104927.66;5133327;27;20497;-78
2023/09/03 06:15:36;;;;;;;5.80;4.03;;;;;;;26.53;100.00;104458.56;5133146;27;20027;-77
2023/09/03 06:18:02;;;;;;;7.90;4.38;;;;;;;26.87;100.00;104030.06;5133266;27;20034;-77
2023/09/03 06:20:27;;;;;;;7.15;3.97;;;;;;;27.45;100.00;103217.41;5114849;27;20114;-78
2023/09/03 06:22:53;;;;;;;5.13;3.90;;;;;;;27.61;100.00;102573.31;5133406;27;20455;-78
2023/09/03 06:25:18;;;;;;;4.72;3.72;;;;;;;28.06;100.00;102484.31;5114907;27;20062;-80
2023/09/03 06:27:44;;;;;;;4.43;3.88;;;;;;;27.59;100.00;102351.16;5132953;27;20035;-80
2023/09/03 06:30:10;;;;;;;5.82;3.78;;;;;;;27.62;100.00;102214.97;5133400;27;20031;-82
2023/09/03 06:32:36;;;;;;;5.85;4.20;;;;;;;28.55;100.00;102218.44;5115365;27;20118;-82
2023/09/03 06:35:05;;;;;;;5.63;3.78;;;;;;;28.19;100.00;102090.00;5115666;28;20031;-77
2023/09/03 06:37:31;;;;;;;6.15;3.38;;;;;;;28.62;100.00;102083.53;5114882;28;20031;-79
2023/09/03 06:39:57;;;;;;;4.90;3.30;;;;;;;28.59;100.00;102052.31;5130916;27;20027;-75
2023/09/03 06:42:22;;;;;;;3.50;3.20;;;;;;;28.77;100.00;101843.22;5157307;27;20041;-77
2023/09/03 06:44:48;;;;;;;7.10;3.30;;;;;;;28.33;100.00;101302.03;5115039;27;20031;-78
2023/09/03 06:47:13;;;;;;;3.67;3.00;;;;;;;28.80;100.00;101287.72;5132663;27;20037;-79
2023/09/03 06:49:38;;;;;;;3.50;3.08;;;;;;;28.72;100.00;101256.09;5132525;27;20027;-80
2023/09/03 06:52:04;;;;;;;4.32;2.70;;;;;;;29.14;100.00;101249.88;5114399;28;20512;-79
2023/09/03 06:54:30;;;;;;;5.38;2.78;;;;;;;28.91;100.00;101243.94;5132892;28;20027;-77
2023/09/03 06:56:55;;;;;;;4.35;3.08;;;;;;;29.10;100.00;101257.13;5133253;28;20039;-77
2023/09/03 06:59:23;;;;;;;5.32;2.60;;;;;;;29.70;100.00;101192.53;5114339;28;20037;-79
2023/09/03 07:01:52;;;;;;;4.70;3.05;;;;;;;29.01;100.00;101181.94;5114936;28;20561;-81
2023/09/03 07:04:18;;;;;;;7.07;3.10;;;;;;;29.75;100.00;101209.53;5132940;28;20023;-83
2023/09/03 07:06:43;;;;;;;5.13;2.97;;;;;;;28.98;100.00;101234.59;5133303;28;20060;-80
2023/09/03 07:09:10;;;;;;;10.23;3.00;;;;;;;29.02;100.00;101172.28;5114334;28;20035;-78
2023/09/03 07:11:36;;;;;;;3.05;2.75;;;;;;;29.50;100.00;101172.47;5132964;28;20019;-80
2023/09/03 07:14:02;;;;;;;5.70;2.60;;;;;;;29.50;100.00;101148.88;5132383;28;20035;-78
2023/09/03 07:16:27;;;;;;;3.83;2.90;;;;;;;29.55;100.00;101202.59;5132613;28;20027;-79
2023/09/03 07:18:52;;;;;;;4.50;2.80;;;;;;;30.27;100.00;101187.31;5132526;28;20027;-83
2023/09/03 07:21:19;;;;;;;5.28;2.90;;;;;;;29.85;100.00;101130.88;5132605;28;20027;-82
2023/09/03 07:23:45;;;;;;;3.55;2.85;;;;;;;29.70;100.00;101172.38;5114601;28;20073;-83
2023/09/03 07:26:10;;;;;;;4.03;2.90;;;;;;;30.60;100.00;101165.06;5132267;28;20087;-82
2023/09/03 07:28:37;;;;;;;4.95;2.95;;;;;;;30.40;100.00;101155.56;5132893;28;20035;-83
2023/09/03 07:31:03;;;;;;;3.42;2.85;;;;;;;31.13;100.00;101134.59;5114508;28;20024;-80
2023/09/03 07:33:29;;;;;;;5.47;2.95;;;;;;;30.97;100.00;101129.13;5132573;28;20084;-79
2023/09/03 07:35:54;;;;;;;5.32;2.95;;;;;;;30.59;100.00;101080.19;5114108;28;20473;-80
2023/09/03 07:38:19;;;;;;;4.43;2.72;;;;;;;31.45;100.00;101113.13;5110842;28;20541;-81
2023/09/03 07:40:45;;;;;;;3.30;2.95;;;;;;;30.59;100.00;101131.88;5093992;28;20092;-80
2023/09/03 07:43:11;;;;;;;3.78;3.20;;;;;;;30.72;100.00;101071.97;5121435;28;20023;-79
2023/09/03 07:45:36;;;;;;;3.53;3.22;;;;;;;31.19;100.00;101096.38;5132218;28;20055;-79
2023/09/03 07:48:02;;;;;;;3.72;3.40;;;;;;;30.53;100.00;101127.19;5132299;28;20483;-80
2023/09/03 07:50:30;;;;;;;3.78;3.00;;;;;;;30.87;100.00;101051.31;5133041;28;20034;-79
2023/09/03 07:52:57;;;;;;;6.32;3.17;;;;;;;31.73;100.00;101085.75;5114921;28;20028;-80
2023/09/03 07:55:23;;;;;;;3.55;3.10;;;;;;;31.70;100.00;101095.75;5132576;28;20027;-80
2023/09/03 07:57:48;;;;;;;10.45;3.35;;;;;;;31.66;100.00;101095.22;5134146;27;20051;-79
2023/09/03 08:00:14;;;;;;;3.17;2.88;;;;;;;31.75;100.00;101039.06;5135818;27;20546;-80
2023/09/03 08:02:39;;;;;;;3.17;2.88;;;;;;;31.17;100.00;101108.84;5135814;27;20023;-79
2023/09/03 08:05:05;;;;;;;3.42;2.95;;;;;;;31.70;100.00;101032.59;5117480;27;20496;-78
2023/09/03 08:07:31;;;;;;;4.57;3.00;;;;;;;31.61;100.00;101035.16;5117964;27;20054;-77
2023/09/03 08:09:56;;;;;;;4.43;2.92;;;;;;;32.53;100.00;101067.09;5118042;27;20088;-78
2023/09/03 08:12:22;;;;;;;3.47;3.17;;;;;;;31.38;100.00;101027.88;5117325;27;20508;-77
2023/09/03 08:14:48;;;;;;;7.05;3.55;;;;;;;30.89;100.00;101023.91;5135900;27;20110;-77
2023/09/03 08:17:14;;;;;;;7.15;3.10;;;;;;;31.00;100.00;101036.03;5117941;27;20057;-77
2023/09/03 08:19:40;;;;;;;3.90;2.72;;;;;;;31.74;100.00;101070.78;5117539;27;20473;-78
2023/09/03 08:22:05;;;;;;;3.53;2.92;;;;;;;31.25;100.00;101082.63;5136008;27;20114;-81
2023/09/03 08:24:31;;;;;;;4.55;3.08;;;;;;;30.84;100.00;101096.28;5135852;27;20027;-82
2023/09/03 08:26:58;;;;;;;3.80;2.95;;;;;;;31.38;100.00;101020.00;5135410;27;20027;-81
2023/09/03 08:29:24;;;;;;;5.22;3.17;;;;;;;31.49;100.00;101052.19;5135795;27;20023;-80
2023/09/03 08:31:49;;;;;;;4.90;3.05;;;;;;;31.81;100.00;101059.50;5117227;27;20345;-79
2023/09/03 08:34:15;;;;;;;5.20;2.90;;;;;;;31.54;100.00;101072.75;5134881;27;20085;-82
2023/09/03 08:36:40;;;;;;;3.65;3.15;;;;;;;31.71;100.00;101058.78;5135475;27;20069;-81
2023/09/03 08:39:06;;;;;;;3.55;3.15;;;;;;;32.57;100.00;101028.91;5117601;27;20031;-79
2023/09/03 08:41:33;;;;;;;5.32;2.95;;;;;;;31.68;100.00;101066.13;5116919;27;20015;-79
2023/09/03 08:44:03;;;;;;;4.32;3.28;;;;;;;32.12;100.00;101057.28;5117049;27;20035;-81
2023/09/03 08:46:31;;;;;;;3.30;3.00;;;;;;;30.76;100.00;101100.41;5117478;27;20031;-79
2023/09/03 08:48:59;;;;;;;6.03;3.15;;;;;;;31.27;100.00;101014.94;5117010;27;20104;-80
2023/09/03 08:51:26;;;;;;;6.93;3.15;;;;;;;31.00;100.00;101071.00;5135379;27;20042;-79
2023/09/03 08:53:54;;;;;;;3.53;3.10;;;;;;;31.98;100.00;101024.44;5134945;27;20482;-80
2023/09/03 08:56:20;;;;;;;4.88;3.05;;;;;;;32.12;100.00;101034.41;5134840;27;20034;-80
2023/09/03 08:58:47;;;;;;;4.15;3.10;;;;;;;32.07;100.00;100965.59;5099917;27;20055;-81
2023/09/03 09:01:16;;;;;;;3.53;3.00;;;;;;;31.16;100.00;100986.25;5134810;27;20043;-78
2023/09/03 09:03:44;;;;;;;5.55;3.20;;;;;;;33.14;100.00;100999.09;5134964;27;20494;-80
2023/09/03 09:06:11;;;;;;;3.30;3.00;;;;;;;31.46;100.00;101055.09;5117092;27;20114;-77
2023/09/03 09:08:39;;;;;;;3.42;3.13;;;;;;;31.36;100.00;101061.34;5134998;27;20107;-78
2023/09/03 09:11:11;;;;;;;5.32;3.30;;;;;;;30.84;100.00;101068.22;5134930;27;20103;-79
2023/09/03 09:13:41;;;;;;;3.22;3.03;;;;;;;31.73;100.00;101046.28;5116693;27;20084;-77
2023/09/03 09:16:07;;;;;;;3.65;3.03;;;;;;;31.39;100.00;101046.16;5116824;27;20127;-79
2023/09/03 09:18:32;;;;;;;4.43;2.97;;;;;;;31.86;100.00;101027.44;5134395;27;20031;-79
2023/09/03 09:21:00;;;;;;;4.55;3.00;;;;;;;31.40;100.00;101052.22;5134405;27;20095;-79
2023/09/03 09:23:26;;;;;;;3.33;3.03;;;;;;;31.35;100.00;101049.22;5116063;27;20099;-79
2023/09/03 09:25:54;;;;;;;3.10;2.53;;;;;;;31.31;100.00;101050.47;5134910;27;20123;-79
2023/09/03 09:28:21;;;;;;;3.65;2.80;;;;;;;32.29;100.00;101011.59;5134903;27;20027;-79
2023/09/03 09:30:58;;;;;;;2.95;2.70;;;;;;;32.32;100.00;100995.50;5134521;27;20023;-78
2023/09/03 09:33:24;;;;;;;3.60;2.80;;;;;;;31.28;100.00;101025.31;5116449;27;20426;-79
2023/09/03 09:35:50;;;;;;;3.90;3.10;;;;;;;31.20;100.00;101019.97;5134415;27;20042;-79
2023/09/03 09:38:16;;;;;;;4.75;2.78;;;;;;;30.95;100.00;101038.25;5134520;27;20031;-80
2023/09/03 09:40:42;;;;;;;4.38;3.13;;;;;;;31.81;100.00;101020.03;5116150;27;20031;-79
2023/09/03 09:43:08;;;;;;;4.43;3.30;;;;;;;31.88;100.00;101014.97;5115323;27;20037;-78
2023/09/03 09:45:49;;;;;;;3.63;3.15;;;;;;;32.21;100.00;100982.59;5134671;27;20042;-78
2023/09/03 09:48:15;;;;;;;3.47;2.55;;;;;;;32.38;100.00;100921.13;5115622;27;20037;-77
2023/09/03 09:50:46;;;;;;;4.68;2.80;;;;;;;32.86;100.00;100958.16;5133545;27;20043;-77
2023/09/03 09:53:24;;;;;;;;;;;;;;;31.13;100.00;101028.59;5122454;27;20101;-74
2023/09/03 09:56:01;;;;;;;4.95;2.90;;;;;;;30.67;100.00;101008.53;5140141;27;19926;-78
2023/09/03 09:58:37;;;;;;;3.67;2.95;;;;;;;30.94;100.00;101026.91;5133739;27;20133;-78
2023/09/03 10:01:03;;;;;;;3.67;3.20;;;;;;;30.51;100.00;101045.09;5134183;27;20031;-78
2023/09/03 10:03:46;;;;;;;3.22;2.92;;;;;;;30.74;100.00;101020.91;5115951;27;20031;-78
2023/09/03 10:06:19;;;;;;;5.68;3.00;;;;;;;30.92;100.00;101004.41;5133863;27;20027;-75
2023/09/03 10:08:46;;;;;;;4.22;2.88;;;;;;;31.68;100.00;100909.09;5115887;27;20023;-80
2023/09/03 10:11:12;;;;;;;5.22;2.90;;;;;;;32.45;100.00;100945.06;5133246;27;20117;-79
2023/09/03 10:13:41;;;;;;;4.47;2.70;;;;;;;31.55;100.00;101000.75;5133728;27;20135;-77
2023/09/03 10:16:08;;;;;;;4.20;2.75;;;;;;;30.89;100.00;100949.50;5133698;27;20055;-76
2023/09/03 10:18:38;;;;;;;4.60;2.60;;;;;;;31.31;100.00;100998.72;5115743;27;20027;-78
2023/09/03 10:21:10;;;;;;;2.60;2.33;;;;;;;31.70;100.00;100899.22;5114617;27;20027;-78
2023/09/03 10:23:44;;;;;;;3.25;2.55;;;;;;;32.87;100.00;100930.81;5114866;27;20065;-75
2023/09/03 10:26:12;;;;;;;2.90;2.53;;;;;;;32.81;100.00;100949.09;5133140;27;20482;-74
2023/09/03 10:28:42;;;;;;;3.42;2.90;;;;;;;32.16;100.00;100901.47;5133175;27;20100;-76
2023/09/03 10:31:10;;;;;;;3.75;2.58;;;;;;;32.23;100.00;100928.81;5114794;27;20103;-76
2023/09/03 10:33:40;;;;;;;3.47;2.40;;;;;;;31.96;100.00;100875.53;5115318;27;20046;-76
2023/09/03 10:36:19;;;;;;;5.90;2.72;;;;;;;33.05;100.00;100918.34;5133129;27;20030;-76
2023/09/03 10:38:45;;;;;;;3.22;2.70;;;;;;;32.09;100.00;100939.13;5114752;27;20034;-75
2023/09/03 10:41:19;;;;;;;4.00;3.03;;;;;;;32.89;100.00;100917.47;5133332;27;20118;-73
2023/09/03 10:43:53;;;;;;;5.28;2.75;;;;;;;32.27;100.00;100852.94;5133206;27;20073;-75
2023/09/03 10:46:20;;;;;;;3.25;2.90;;;;;;;33.06;100.00;100885.69;5133332;27;20084;-74
2023/09/03 10:48:55;;;;;;;3.80;2.80;;;;;;;32.70;100.00;100901.97;5113687;28;20504;-74
2023/09/03 10:51:34;;;;;;;4.07;2.42;;;;;;;32.88;100.00;100831.47;5114026;28;20463;-75
2023/09/03 10:54:19;;;;;;;4.32;2.50;;;;;;;32.76;100.00;100902.16;5133107;28;20072;-74
2023/09/03 10:57:06;;;;;;;2.97;2.67;;;;;;;31.84;100.00;100927.59;5132576;28;20099;-76
2023/09/03 10:59:57;;;;;;;2.65;2.30;;;;;;;32.18;100.00;100915.31;5133163;28;20043;-77
2023/09/03 11:02:26;;;;;;;3.30;2.47;;;;;;;31.21;100.00;100921.72;5133074;28;20030;-78
2023/09/03 11:05:11;;;;;;;3.47;2.55;;;;;;;31.65;100.00;100929.63;5114518;28;20068;-79
2023/09/03 11:07:36;;;;;;;3.42;2.40;;;;;;;31.06;100.00;100923.22;5132930;28;20046;-77
2023/09/03 11:10:20;;;;;;;3.38;2.35;;;;;;;32.22;100.00;100900.84;5114764;28;20027;-79
2023/09/03 11:12:48;;;;;;;2.67;2.47;;;;;;;33.15;100.00;100799.50;5114744;28;20050;-78
2023/09/03 11:15:14;;;;;;;5.93;2.80;;;;;;;32.52;100.00;100828.34;5132200;28;20485;-77
2023/09/03 11:17:56;;;;;;;5.00;2.60;;;;;;;32.58;100.00;100821.59;5132753;28;20075;-79